Time;durP1;ratioP1;P1;durP2;ratioP2;P2;SDS_P1;SDS_P2;PMS_P1;PMS_P2;Temp;Humidity;BMP_temperature;BMP_pressure;BME280_temperature;BME280_humidity;BME280_pressure;Samples;Min_cycle;Max_cycle;Signal;HPM_P1;HPM_P2
2023/01/11 00:02:01;;;;;;;8.05;6.13;;;8.30;99.90;;;;;;6247636;22;20626;-85
2023/01/11 00:04:29;;;;;;;7.75;5.97;;;8.40;99.90;;;;;;6274520;22;20073;-85
2023/01/11 00:06:56;;;;;;;8.63;6.55;;;8.40;99.90;;;;;;6246937;22;20435;-84
2023/01/11 00:09:22;;;;;;;10.25;6.68;;;8.80;99.90;;;;;;6299880;22;20023;-85
2023/01/11 00:11:48;;;;;;;10.80;6.03;;;8.40;99.90;;;;;;6299579;22;20127;-84
2023/01/11 00:14:14;;;;;;;9.38;6.28;;;8.90;99.90;;;;;;6272445;22;20331;-84
2023/01/11 00:16:40;;;;;;;7.20;5.75;;;8.40;99.90;;;;;;6274216;22;20029;-84
2023/01/11 00:19:06;;;;;;;10.25;6.20;;;8.50;99.90;;;;;;6272760;22;20449;-84
2023/01/11 00:21:35;;;;;;;8.63;5.50;;;8.50;99.90;;;;;;6248183;22;20019;-84
2023/01/11 00:24:01;;;;;;;7.70;5.70;;;8.50;99.90;;;;;;6247367;22;20030;-84
2023/01/11 00:26:29;;;;;;;8.70;5.70;;;8.50;99.90;;;;;;6274340;22;20466;-84
2023/01/11 00:28:58;;;;;;;7.38;5.60;;;8.60;99.90;;;;;;6271008;22;20030;-84
2023/01/11 00:31:23;;;;;;;6.70;5.35;;;8.50;99.90;;;;;;6299837;22;20016;-85
2023/01/11 00:33:49;;;;;;;8.55;6.43;;;8.50;99.90;;;;;;6247701;22;20015;-85
2023/01/11 00:36:15;;;;;;;9.80;5.97;;;8.70;99.90;;;;;;6273108;22;20084;-85
2023/01/11 00:38:50;;;;;;;7.18;5.00;;;8.40;99.90;;;;;;6274368;22;20072;-85
2023/01/11 00:49:43;;;;;;;8.02;5.50;;;8.70;99.90;;;;;;6272690;22;20034;-84
2023/01/11 00:52:09;;;;;;;8.15;5.57;;;8.70;99.90;;;;;;6248830;22;20047;-84
2023/01/11 00:54:39;;;;;;;8.52;5.55;;;8.70;99.90;;;;;;6299238;22;20019;-84
2023/01/11 00:57:06;;;;;;;7.93;5.13;;;8.20;99.90;;;;;;6297512;22;20019;-84
2023/01/11 00:59:33;;;;;;;7.07;5.45;;;8.80;99.90;;;;;;6273246;22;20019;-84
2023/01/11 01:01:59;;;;;;;6.13;4.75;;;8.90;99.90;;;;;;6247855;22;20027;-84
2023/01/11 01:04:25;;;;;;;7.20;4.63;;;8.90;99.90;;;;;;6272758;22;20023;-84
2023/01/11 01:06:53;;;;;;;7.32;4.75;;;9.00;99.90;;;;;;6247415;22;20090;-84
2023/01/11 01:09:18;;;;;;;7.18;4.88;;;8.80;99.90;;;;;;6298142;22;20049;-84
2023/01/11 01:11:45;;;;;;;6.10;4.60;;;8.80;99.90;;;;;;6272959;22;20015;-85
2023/01/11 01:14:28;;;;;;;7.18;5.00;;;8.90;99.90;;;;;;6248275;22;20034;-84
2023/01/11 01:17:05;;;;;;;6.63;4.90;;;8.80;99.90;;;;;;6247174;22;20031;-85
2023/01/11 01:19:34;;;;;;;8.93;5.20;;;9.00;99.90;;;;;;6248155;22;20022;-85
2023/01/11 01:22:00;;;;;;;5.60;4.28;;;9.00;99.90;;;;;;6273755;22;20072;-85
2023/01/11 01:24:28;;;;;;;6.35;4.63;;;9.00;99.90;;;;;;6298052;22;20019;-85
2023/01/11 01:26:54;;;;;;;6.85;4.70;;;8.90;99.90;;;;;;6272826;22;20045;-84
2023/01/11 01:29:20;;;;;;;6.13;4.40;;;9.10;99.90;;;;;;6298265;22;20076;-84
2023/01/11 01:31:48;;;;;;;6.38;4.63;;;8.90;99.90;;;;;;6246533;22;20019;-84
2023/01/11 01:34:14;;;;;;;6.35;4.60;;;8.90;99.90;;;;;;6273256;22;20038;-84
2023/01/11 01:36:43;;;;;;;6.85;4.55;;;9.10;99.90;;;;;;6273194;22;20026;-84
2023/01/11 01:39:10;;;;;;;9.13;4.43;;;9.10;99.90;;;;;;6272329;22;20365;-84
2023/01/11 01:41:36;;;;;;;6.20;4.70;;;9.10;99.90;;;;;;6300080;22;20016;-85
2023/01/11 01:44:05;;;;;;;5.60;4.40;;;9.10;99.90;;;;;;6246611;22;20104;-85
2023/01/11 01:47:20;;;;;;;8.07;4.95;;;9.10;99.90;;;;;;6247222;22;20026;-84
2023/01/11 01:49:39;;;;;;;5.53;4.40;;;8.80;99.90;;;;;;6264988;22;20031;-85
2023/01/11 01:52:06;;;;;;;7.55;4.80;;;9.10;99.90;;;;;;6245480;22;20023;-85
2023/01/11 01:54:39;;;;;;;8.38;5.28;;;9.10;99.90;;;;;;6272926;22;20019;-85
2023/01/11 01:57:10;;;;;;;;;;;9.30;99.90;;;;;;6273256;22;20556;-84
2023/01/11 01:59:38;;;;;;;8.40;4.85;;;9.30;99.90;;;;;;6272137;22;19950;-84
2023/01/11 02:02:04;;;;;;;6.13;4.45;;;9.30;99.90;;;;;;6273276;22;20462;-85
2023/01/11 02:04:35;;;;;;;7.43;4.82;;;9.30;99.90;;;;;;6273213;22;20015;-85
2023/01/11 02:07:11;;;;;;;5.20;3.80;;;9.30;99.90;;;;;;6271862;22;20015;-85
2023/01/11 02:09:44;;;;;;;11.57;4.80;;;9.40;99.90;;;;;;6273594;22;20019;-85
2023/01/11 02:12:10;;;;;;;5.10;3.85;;;9.50;99.90;;;;;;6272722;22;20027;-85
2023/01/11 02:14:38;;;;;;;6.57;4.45;;;9.50;99.90;;;;;;6272282;22;20412;-85
2023/01/11 02:17:04;;;;;;;7.78;4.30;;;9.50;99.90;;;;;;6246736;22;20130;-85
2023/01/11 02:19:42;;;;;;;6.18;3.90;;;9.40;99.90;;;;;;6247412;22;20007;-85
2023/01/11 02:22:39;;;;;;;7.07;4.40;;;8.90;99.90;;;;;;6273919;22;20027;-85
2023/01/11 02:25:22;;;;;;;6.05;3.80;;;9.50;99.90;;;;;;6272681;22;20100;-85
2023/01/11 02:27:54;;;;;;;;;;;9.60;99.90;;;;;;6271993;22;20023;-84
2023/01/11 02:30:31;;;;;;;5.35;3.55;;;9.50;99.90;;;;;;6273312;22;19976;-85
2023/01/11 02:33:17;;;;;;;7.78;3.90;;;9.50;99.90;;;;;;6272362;22;20023;-85
2023/01/11 02:35:51;;;;;;;8.57;3.80;;;9.50;99.90;;;;;;6271902;22;20023;-85
2023/01/11 02:38:33;;;;;;;6.45;3.67;;;9.70;99.90;;;;;;6272894;22;20015;-84
2023/01/11 02:41:06;;;;;;;5.53;3.45;;;9.70;99.90;;;;;;6271352;22;20054;-84
2023/01/11 02:46:45;;;;;;;4.85;3.33;;;9.70;99.90;;;;;;6273917;22;20395;-84
2023/01/11 02:49:23;;;;;;;5.97;3.20;;;9.70;99.90;;;;;;6297862;22;20440;-84
2023/01/11 02:51:55;;;;;;;4.88;3.10;;;9.60;99.90;;;;;;6273261;22;20081;-85
2023/01/11 02:54:26;;;;;;;4.43;2.57;;;9.70;99.90;;;;;;6249407;22;20435;-84
2023/01/11 02:56:56;;;;;;;4.88;2.83;;;9.70;99.90;;;;;;6273112;22;20307;-84
2023/01/11 02:59:30;;;;;;;5.95;2.55;;;9.80;99.90;;;;;;6249113;22;20027;-84
2023/01/11 03:01:55;;;;;;;5.13;2.47;;;10.10;99.90;;;;;;6299884;22;20023;-84
2023/01/11 03:04:31;;;;;;;4.53;2.20;;;9.50;99.90;;;;;;6250208;22;20029;-85
2023/01/11 03:07:40;;;;;;;3.38;2.03;;;9.80;99.90;;;;;;6248786;22;20019;-85
2023/01/11 03:10:23;;;;;;;5.25;3.13;;;9.70;99.90;;;;;;6273335;22;20053;-85
2023/01/11 03:13:23;;;;;;;4.50;2.80;;;9.70;99.90;;;;;;6273398;22;20100;-84
2023/01/11 03:15:59;;;;;;;5.78;3.88;;;9.80;99.90;;;;;;6247675;22;20047;-84
2023/01/11 03:18:49;;;;;;;4.25;2.08;;;9.40;99.90;;;;;;6275614;22;20027;-84
2023/01/11 03:21:26;;;;;;;6.60;3.92;;;9.80;99.90;;;;;;6275052;22;20043;-84
2023/01/11 03:24:17;;;;;;;4.65;2.17;;;9.80;99.90;;;;;;6273536;22;20021;-84
2023/01/11 03:27:10;;;;;;;4.75;1.30;;;9.80;99.90;;;;;;6249160;22;20015;-84
2023/01/11 03:29:46;;;;;;;4.05;1.73;;;9.90;99.90;;;;;;6248361;22;20092;-84
2023/01/11 03:32:27;;;;;;;2.60;1.23;;;10.00;99.90;;;;;;6274155;22;20053;-84
2023/01/11 03:35:11;;;;;;;3.55;1.27;;;10.00;99.90;;;;;;6273602;22;20019;-85
2023/01/11 03:37:43;;;;;;;2.80;1.10;;;10.00;99.90;;;;;;6248122;22;20116;-84
2023/01/11 03:40:15;;;;;;;3.03;1.23;;;10.10;99.90;;;;;;6275091;22;20440;-84
2023/01/11 03:45:34;;;;;;;2.35;1.30;;;10.00;99.90;;;;;;6273054;22;20052;-84
2023/01/11 03:48:02;;;;;;;3.58;1.35;;;10.10;99.90;;;;;;6273107;22;20219;-84
2023/01/11 03:50:30;;;;;;;1.73;1.00;;;10.00;99.90;;;;;;6274323;22;20512;-84
2023/01/11 03:52:57;;;;;;;3.17;1.50;;;10.10;99.90;;;;;;6272211;22;20015;-84
2023/01/11 03:55:28;;;;;;;2.85;1.45;;;10.00;99.90;;;;;;6274380;22;20098;-84
2023/01/11 03:57:54;;;;;;;6.30;1.52;;;10.10;99.90;;;;;;6272076;22;20080;-84
2023/01/11 04:00:21;;;;;;;6.57;1.90;;;10.10;99.90;;;;;;6248541;22;20011;-84
2023/01/11 04:02:48;;;;;;;9.10;2.20;;;10.10;99.90;;;;;;6247321;22;20315;-84
2023/01/11 04:05:14;;;;;;;9.45;2.40;;;10.20;99.90;;;;;;6273847;22;20023;-84
2023/01/11 04:07:40;;;;;;;14.13;3.22;;;10.20;99.90;;;;;;6274606;22;20102;-84
2023/01/11 04:10:07;;;;;;;10.15;2.80;;;10.20;99.90;;;;;;6273603;22;20019;-84
2023/01/11 04:12:32;;;;;;;17.30;3.08;;;10.30;99.90;;;;;;6247677;22;20030;-84
2023/01/11 04:14:58;;;;;;;12.63;3.03;;;10.30;99.90;;;;;;6297972;22;20023;-84
2023/01/11 04:17:24;;;;;;;10.10;2.78;;;10.30;99.90;;;;;;6274108;22;20046;-84
2023/01/11 04:19:49;;;;;;;8.55;2.80;;;10.30;99.90;;;;;;6272843;22;20354;-84
2023/01/11 04:22:15;;;;;;;13.82;3.00;;;10.30;99.90;;;;;;6273618;22;20021;-84
2023/01/11 04:24:41;;;;;;;17.30;3.38;;;10.30;99.90;;;;;;6274065;22;20034;-84
2023/01/11 04:27:07;;;;;;;20.50;3.63;;;10.40;99.90;;;;;;6271659;22;20065;-84
2023/01/11 04:29:32;;;;;;;15.52;3.35;;;10.30;99.90;;;;;;6299634;22;20019;-84
2023/01/11 04:31:58;;;;;;;16.88;3.22;;;10.30;99.90;;;;;;6247594;22;20011;-84
2023/01/11 04:34:24;;;;;;;20.88;3.25;;;10.30;99.90;;;;;;6271537;22;20019;-85
2023/01/11 04:36:50;;;;;;;19.00;2.72;;;10.30;99.90;;;;;;6273722;22;20026;-84
2023/01/11 04:39:23;;;;;;;12.38;2.13;;;10.40;99.90;;;;;;6248309;22;20023;-85
2023/01/11 04:44:33;;;;;;;14.68;2.17;;;10.10;99.90;;;;;;6273494;22;20062;-84
2023/01/11 04:46:59;;;;;;;10.23;1.75;;;10.00;99.90;;;;;;6324845;22;20015;-84
2023/01/11 04:49:27;;;;;;;9.20;1.30;;;9.90;99.90;;;;;;6248239;22;20050;-84
2023/01/11 04:51:53;;;;;;;13.00;1.67;;;9.90;99.90;;;;;;6272616;22;20443;-84
2023/01/11 04:54:18;;;;;;;8.98;1.50;;;9.80;99.90;;;;;;6325168;22;20026;-84
2023/01/11 04:56:44;;;;;;;10.18;1.30;;;9.60;99.90;;;;;;6273867;22;20011;-84
2023/01/11 04:59:10;;;;;;;11.20;1.30;;;9.70;99.90;;;;;;6246975;22;20339;-84
2023/01/11 05:01:36;;;;;;;8.15;1.40;;;9.60;99.90;;;;;;6272573;22;20018;-84
2023/01/11 05:04:01;;;;;;;7.47;1.63;;;9.00;99.90;;;;;;6272503;22;20019;-84
2023/01/11 05:06:27;;;;;;;8.82;1.30;;;9.50;99.90;;;;;;6249266;22;20437;-84
2023/01/11 05:08:53;;;;;;;11.38;1.27;;;9.60;99.90;;;;;;6271772;22;20023;-84
2023/01/11 05:11:18;;;;;;;12.88;1.95;;;9.50;99.90;;;;;;6272153;22;20015;-84
2023/01/11 05:13:44;;;;;;;9.55;1.58;;;9.40;99.90;;;;;;6269882;22;20019;-84
2023/01/11 05:16:16;;;;;;;10.40;1.50;;;9.20;99.90;;;;;;6273286;22;20022;-84
2023/01/11 05:18:45;;;;;;;9.38;1.75;;;9.50;99.90;;;;;;6272755;22;20110;-85
2023/01/11 05:21:13;;;;;;;10.00;1.65;;;9.50;99.90;;;;;;6273632;22;20452;-84
2023/01/11 05:23:39;;;;;;;16.00;1.90;;;9.70;99.90;;;;;;6272492;22;20137;-83
2023/01/11 05:26:09;;;;;;;10.43;1.70;;;9.50;99.90;;;;;;6268368;22;20021;-84
2023/01/11 05:28:35;;;;;;;17.48;2.15;;;9.60;99.90;;;;;;6298285;22;20019;-84
2023/01/11 05:31:01;;;;;;;13.98;2.03;;;9.50;99.90;;;;;;6246329;22;20018;-84
2023/01/11 05:33:30;;;;;;;20.00;3.20;;;9.60;99.90;;;;;;6273729;22;20103;-84
2023/01/11 05:35:57;;;;;;;9.93;1.83;;;9.50;99.90;;;;;;6273590;22;20045;-83
2023/01/11 05:38:23;;;;;;;17.92;2.50;;;9.50;99.90;;;;;;6247363;22;20012;-83
2023/01/11 05:40:57;;;;;;;19.55;3.10;;;9.60;99.90;;;;;;6273497;22;20406;-83
2023/01/11 05:43:24;;;;;;;11.23;1.70;;;9.50;99.90;;;;;;6273217;22;20054;-84
2023/01/11 05:45:50;;;;;;;15.98;3.05;;;9.50;99.90;;;;;;6246934;22;20100;-83
2023/01/11 05:48:16;;;;;;;16.77;2.92;;;9.60;99.90;;;;;;6298625;22;20049;-84
2023/01/11 05:50:42;;;;;;;19.48;2.53;;;9.60;99.90;;;;;;6272626;22;20055;-84
2023/01/11 05:53:08;;;;;;;14.60;2.90;;;9.50;99.90;;;;;;6273505;22;20382;-84
2023/01/11 05:55:33;;;;;;;21.45;2.80;;;9.60;99.90;;;;;;6299767;22;20114;-85
2023/01/11 05:58:05;;;;;;;19.20;2.97;;;9.50;99.90;;;;;;6297394;22;20023;-84
2023/01/11 06:00:31;;;;;;;20.75;2.80;;;9.60;99.90;;;;;;6272870;22;20026;-84
2023/01/11 06:03:00;;;;;;;21.95;2.80;;;9.50;99.90;;;;;;6272784;22;20019;-84
2023/01/11 06:05:25;;;;;;;17.65;2.65;;;9.00;99.90;;;;;;6324779;22;20027;-84
2023/01/11 06:07:53;;;;;;;26.02;3.70;;;9.20;99.90;;;;;;6324483;22;20461;-84
2023/01/11 06:10:18;;;;;;;24.38;3.72;;;9.50;99.90;;;;;;6273109;22;20011;-84
2023/01/11 06:12:49;;;;;;;22.23;3.03;;;9.30;99.90;;;;;;6271826;22;20050;-84
2023/01/11 06:15:15;;;;;;;24.75;3.15;;;9.20;99.90;;;;;;6272487;22;20643;-84
2023/01/11 06:17:41;;;;;;;33.30;3.67;;;9.20;99.90;;;;;;6273389;22;20027;-83
2023/01/11 06:20:08;;;;;;;28.15;3.80;;;9.10;99.90;;;;;;6245967;22;20026;-83
2023/01/11 06:22:33;;;;;;;32.33;3.90;;;9.10;99.90;;;;;;6248469;22;20023;-84
2023/01/11 06:24:59;;;;;;;28.10;4.25;;;9.10;99.90;;;;;;6273083;22;20340;-84
2023/01/11 06:27:24;;;;;;;22.17;3.22;;;9.10;99.90;;;;;;6272786;22;20034;-84
2023/01/11 06:29:50;;;;;;;22.67;3.38;;;9.20;99.90;;;;;;6274200;22;20015;-84
2023/01/11 06:32:16;;;;;;;26.73;3.17;;;9.20;99.90;;;;;;6274779;22;20029;-83
2023/01/11 06:34:41;;;;;;;22.83;2.78;;;9.20;99.90;;;;;;6249278;22;20059;-83
2023/01/11 06:37:07;;;;;;;23.80;4.82;;;9.20;99.90;;;;;;6326442;22;20158;-84
2023/01/11 06:39:33;;;;;;;24.70;3.70;;;9.30;99.90;;;;;;6274840;22;20019;-84
2023/01/11 06:41:58;;;;;;;19.60;3.03;;;9.40;99.90;;;;;;6273096;22;20347;-84
2023/01/11 06:44:24;;;;;;;21.65;3.30;;;9.30;99.90;;;;;;6274819;22;20080;-84
2023/01/11 06:46:50;;;;;;;26.63;3.70;;;9.40;99.90;;;;;;6273695;22;20349;-84
2023/01/11 06:49:15;;;;;;;21.38;3.35;;;9.20;99.90;;;;;;6250078;22;20027;-84
2023/01/11 06:51:41;;;;;;;30.90;3.53;;;9.30;99.90;;;;;;6275323;22;20182;-84
2023/01/11 06:54:07;;;;;;;29.17;3.58;;;9.40;99.90;;;;;;6273625;22;20027;-84
2023/01/11 06:56:33;;;;;;;34.35;4.40;;;8.70;99.90;;;;;;6275758;22;20015;-84
2023/01/11 06:58:58;;;;;;;26.13;3.45;;;9.30;99.90;;;;;;6273159;22;20031;-84
2023/01/11 07:01:25;;;;;;;31.90;4.22;;;9.30;99.90;;;;;;6274444;22;20023;-84
2023/01/11 07:03:51;;;;;;;32.30;4.57;;;9.20;99.90;;;;;;6274222;22;20019;-84
2023/01/11 07:06:16;;;;;;;31.55;4.18;;;9.20;99.90;;;;;;6275355;22;20020;-84
2023/01/11 07:08:42;;;;;;;27.05;3.53;;;9.20;99.90;;;;;;6273905;22;20055;-84
2023/01/11 07:11:09;;;;;;;30.58;3.95;;;9.10;99.90;;;;;;6248785;22;20454;-84
2023/01/11 07:13:34;;;;;;;27.70;4.10;;;9.20;99.90;;;;;;6249186;22;20023;-84
2023/01/11 07:16:00;;;;;;;25.73;4.20;;;9.00;99.90;;;;;;6272674;22;20076;-84
2023/01/11 07:18:26;;;;;;;21.65;3.20;;;9.10;99.90;;;;;;6274605;22;20398;-84
2023/01/11 07:20:51;;;;;;;23.23;3.00;;;9.10;99.90;;;;;;6273935;22;20026;-83
2023/01/11 07:23:18;;;;;;;15.85;2.70;;;9.00;99.90;;;;;;6273422;22;20020;-84
2023/01/11 07:25:43;;;;;;;18.70;3.08;;;9.10;99.90;;;;;;6274155;22;20057;-84
2023/01/11 07:28:09;;;;;;;20.08;3.22;;;9.20;99.90;;;;;;6273558;22;20015;-83
2023/01/11 07:30:38;;;;;;;23.35;3.65;;;9.20;99.90;;;;;;6324829;22;20015;-84
2023/01/11 07:33:06;;;;;;;19.77;2.42;;;9.40;99.90;;;;;;6273387;22;20015;-84
2023/01/11 07:35:32;;;;;;;18.33;2.53;;;9.00;99.90;;;;;;6275423;22;20097;-84
2023/01/11 07:37:57;;;;;;;28.50;2.75;;;9.40;99.90;;;;;;6247424;22;20090;-84
2023/01/11 07:40:23;;;;;;;22.92;3.00;;;9.10;99.90;;;;;;6249385;22;20068;-85
2023/01/11 07:45:38;;;;;;;23.33;3.47;;;9.10;99.90;;;;;;6273782;22;20019;-84
2023/01/11 07:48:05;;;;;;;32.05;3.75;;;9.10;99.90;;;;;;6298331;22;22389;-84
2023/01/11 07:50:32;;;;;;;19.52;3.05;;;9.10;99.90;;;;;;6273097;22;20019;-84
2023/01/11 07:52:57;;;;;;;14.88;2.53;;;9.10;99.90;;;;;;6273562;22;20026;-84
2023/01/11 07:55:23;;;;;;;20.38;3.33;;;9.10;99.90;;;;;;6300249;22;20019;-84
2023/01/11 07:57:49;;;;;;;36.85;4.10;;;9.10;99.90;;;;;;6272320;22;20031;-85
2023/01/11 08:00:18;;;;;;;17.70;2.60;;;9.70;99.90;;;;;;6273258;22;20054;-84
2023/01/11 08:02:44;;;;;;;25.25;3.17;;;8.90;99.90;;;;;;6298996;22;20085;-84
2023/01/11 08:05:09;;;;;;;21.42;2.95;;;9.00;99.90;;;;;;6273271;22;20411;-84
2023/01/11 08:07:35;;;;;;;20.75;3.85;;;9.10;99.90;;;;;;6274256;22;20015;-84
2023/01/11 08:10:02;;;;;;;26.17;2.42;;;9.30;99.90;;;;;;6272592;22;20098;-84
2023/01/11 08:15:13;;;;;;;25.77;3.00;;;9.00;99.90;;;;;;6273655;22;20053;-84
2023/01/11 08:17:38;;;;;;;19.77;4.07;;;8.90;99.90;;;;;;6273967;22;20501;-85
2023/01/11 08:20:05;;;;;;;23.70;3.47;;;9.00;99.90;;;;;;6272271;22;20015;-84
2023/01/11 08:22:30;;;;;;;23.63;2.85;;;8.90;99.90;;;;;;6274067;22;20019;-84
2023/01/11 08:24:56;;;;;;;20.40;2.63;;;9.00;99.90;;;;;;6272829;22;20019;-84
2023/01/11 08:27:22;;;;;;;24.15;3.53;;;8.90;99.90;;;;;;6273193;22;20507;-83
2023/01/11 08:29:47;;;;;;;17.33;2.50;;;8.90;99.90;;;;;;6271611;22;20023;-84
2023/01/11 08:32:13;;;;;;;15.85;2.28;;;8.90;99.90;;;;;;6298299;22;20425;-83
2023/01/11 08:34:39;;;;;;;20.45;2.60;;;8.80;99.90;;;;;;6274039;22;20037;-84
2023/01/11 08:37:05;;;;;;;17.65;3.17;;;8.80;99.90;;;;;;6272695;22;20041;-84
2023/01/11 08:39:31;;;;;;;22.17;2.55;;;8.70;99.90;;;;;;6325086;22;20083;-83
2023/01/11 08:41:59;;;;;;;22.85;2.50;;;8.70;99.90;;;;;;6272263;22;20094;-84
2023/01/11 08:44:24;;;;;;;17.63;2.65;;;8.70;99.90;;;;;;6273462;22;20023;-84
2023/01/11 08:46:51;;;;;;;18.08;2.25;;;8.70;99.90;;;;;;6246551;22;20103;-83
2023/01/11 08:49:16;;;;;;;19.77;2.92;;;8.70;99.90;;;;;;6272839;22;20630;-83
2023/01/11 08:51:42;;;;;;;21.58;2.85;;;8.80;99.90;;;;;;6274024;22;20098;-83
2023/01/11 08:54:11;;;;;;;20.30;2.95;;;8.80;99.90;;;;;;6272468;22;20094;-83
2023/01/11 08:56:37;;;;;;;16.23;2.40;;;8.80;99.90;;;;;;6274507;22;20435;-84
2023/01/11 08:59:04;;;;;;;18.15;3.00;;;8.80;99.90;;;;;;6271238;22;20432;-83
2023/01/11 09:01:30;;;;;;;14.52;2.33;;;8.80;99.90;;;;;;6272758;22;20435;-83
2023/01/11 09:03:56;;;;;;;21.23;2.78;;;8.80;99.90;;;;;;6272567;22;20031;-83
2023/01/11 09:06:22;;;;;;;22.13;2.53;;;8.90;99.90;;;;;;6273674;22;20019;-83
2023/01/11 09:08:48;;;;;;;15.85;2.55;;;8.60;99.90;;;;;;6272367;22;20488;-83
2023/01/11 09:13:58;;;;;;;16.13;2.80;;;8.60;99.90;;;;;;6270790;22;20450;-83
2023/01/11 09:16:24;;;;;;;17.77;2.58;;;8.70;99.90;;;;;;6273586;22;20023;-83
2023/01/11 09:18:49;;;;;;;18.55;2.00;;;8.70;99.90;;;;;;6272396;22;20023;-83
2023/01/11 09:21:15;;;;;;;21.35;2.65;;;8.70;99.90;;;;;;6324573;22;20047;-83
2023/01/11 09:23:43;;;;;;;18.70;2.75;;;8.80;99.90;;;;;;6272412;22;20051;-84
2023/01/11 09:26:10;;;;;;;21.92;3.63;;;8.70;99.90;;;;;;6272771;22;20019;-84
2023/01/11 09:28:36;;;;;;;15.88;3.08;;;8.70;99.90;;;;;;6297205;22;20038;-84
2023/01/11 09:31:02;;;;;;;18.52;2.67;;;8.70;99.90;;;;;;6272485;22;20026;-84
2023/01/11 09:33:28;;;;;;;21.27;2.25;;;8.70;99.90;;;;;;6273821;22;20045;-84
2023/01/11 09:35:56;;;;;;;12.95;2.00;;;8.60;99.90;;;;;;6272195;22;20402;-84
2023/01/11 09:38:25;;;;;;;18.60;2.75;;;8.60;99.90;;;;;;6273323;22;20019;-84
2023/01/11 09:41:00;;;;;;;15.13;2.30;;;8.50;99.90;;;;;;6247465;22;20130;-83
2023/01/11 09:43:29;;;;;;;17.13;2.88;;;8.50;99.90;;;;;;6272304;22;20443;-84
2023/01/11 09:45:59;;;;;;;22.70;2.97;;;8.50;99.90;;;;;;6299678;22;20038;-84
2023/01/11 09:48:42;;;;;;;21.70;2.67;;;8.50;99.90;;;;;;6273239;22;20099;-84
2023/01/11 09:51:25;;;;;;;22.92;2.60;;;8.50;99.90;;;;;;6273199;22;20023;-86
2023/01/11 09:53:52;;;;;;;20.98;3.17;;;8.60;99.90;;;;;;6272472;22;20769;-84
2023/01/11 09:56:24;;;;;;;24.58;3.25;;;8.60;99.90;;;;;;6273314;22;20098;-83
2023/01/11 09:59:01;;;;;;;20.90;3.03;;;8.60;99.90;;;;;;6270844;22;20065;-84
2023/01/11 10:01:37;;;;;;;20.95;2.97;;;8.60;99.90;;;;;;6274847;22;20371;-84
2023/01/11 10:04:14;;;;;;;21.17;2.92;;;8.70;99.90;;;;;;6301410;22;20339;-82
2023/01/11 10:07:01;;;;;;;21.50;2.60;;;8.70;99.90;;;;;;6275133;22;20015;-84
2023/01/11 10:09:35;;;;;;;20.67;2.80;;;8.70;99.90;;;;;;6250133;22;20027;-85
2023/01/11 10:12:22;;;;;;;22.13;2.92;;;8.80;99.90;;;;;;6248936;22;20217;-83
2023/01/11 10:14:56;;;;;;;17.73;3.33;;;8.70;99.90;;;;;;6274172;22;20053;-83
2023/01/11 10:17:41;;;;;;;19.20;2.72;;;8.70;99.90;;;;;;6275622;22;20019;-84
2023/01/11 10:20:15;;;;;;;22.67;2.72;;;8.80;99.90;;;;;;6274922;22;20458;-83
2023/01/11 10:22:45;;;;;;;15.45;2.03;;;8.80;99.90;;;;;;6275791;22;20023;-84
2023/01/11 10:25:14;;;;;;;16.10;2.92;;;8.80;99.90;;;;;;6274402;22;20019;-83
2023/01/11 10:28:01;;;;;;;14.85;3.10;;;8.90;99.90;;;;;;6275552;22;20031;-85
2023/01/11 10:31:11;;;;;;;19.35;2.47;;;8.80;99.90;;;;;;6299718;22;20019;-84
2023/01/11 10:42:27;;;;;;;16.92;3.35;;;9.00;99.90;;;;;;6275209;22;20061;-84
2023/01/11 10:45:01;;;;;;;14.32;2.13;;;9.30;99.90;;;;;;6297011;22;20015;-84
2023/01/11 10:47:38;;;;;;;17.42;2.45;;;9.10;99.90;;;;;;6275114;22;20023;-84
2023/01/11 10:50:13;;;;;;;12.40;2.35;;;9.10;99.90;;;;;;6299920;22;20026;-84
2023/01/11 10:52:54;;;;;;;19.98;2.70;;;9.10;99.90;;;;;;6274983;22;20542;-84
2023/01/11 10:55:25;;;;;;;19.45;2.42;;;9.20;99.90;;;;;;6249515;22;20020;-84
2023/01/11 10:58:01;;;;;;;15.93;2.17;;;9.20;99.90;;;;;;6248266;22;20019;-85
2023/01/11 11:00:38;;;;;;;16.75;2.78;;;9.20;99.90;;;;;;6273998;22;20027;-84
2023/01/11 11:03:36;;;;;;;15.70;2.67;;;9.30;99.90;;;;;;6274295;22;20030;-84
2023/01/11 11:06:16;;;;;;;12.80;2.25;;;9.30;99.90;;;;;;6274393;22;20091;-84
2023/01/11 11:08:53;;;;;;;22.60;3.00;;;9.30;99.90;;;;;;6273668;22;20015;-84
2023/01/11 11:11:30;;;;;;;14.18;2.60;;;9.30;99.90;;;;;;6275354;22;20067;-84
2023/01/11 11:14:03;;;;;;;21.95;2.67;;;9.40;99.90;;;;;;6273189;22;20023;-83
2023/01/11 11:16:54;;;;;;;17.35;2.72;;;9.40;99.90;;;;;;6275218;22;20019;-84
2023/01/11 11:19:25;;;;;;;18.17;3.25;;;9.40;99.90;;;;;;6275637;22;20019;-84
2023/01/11 11:21:52;;;;;;;19.30;2.92;;;9.40;99.90;;;;;;6272495;22;20375;-84
2023/01/11 11:24:21;;;;;;;18.90;2.63;;;9.50;99.90;;;;;;6274889;22;20019;-84
2023/01/11 11:26:56;;;;;;;19.65;3.35;;;9.40;99.90;;;;;;6248878;22;20015;-83
2023/01/11 11:29:29;;;;;;;23.48;3.40;;;9.50;99.90;;;;;;6273430;22;20068;-84
2023/01/11 11:31:57;;;;;;;18.30;3.08;;;9.40;99.90;;;;;;6274172;22;20076;-84
2023/01/11 11:34:26;;;;;;;27.50;3.25;;;9.40;99.90;;;;;;6274491;22;20019;-83
2023/01/11 11:36:53;;;;;;;18.45;3.30;;;9.30;99.90;;;;;;6247844;22;20012;-84
2023/01/11 11:39:29;;;;;;;14.05;2.70;;;9.30;99.90;;;;;;6274923;22;20036;-84
2023/01/11 11:42:05;;;;;;;19.42;2.30;;;9.40;99.90;;;;;;6248390;22;20019;-84
2023/01/11 11:44:30;;;;;;;17.08;2.90;;;9.40;99.90;;;;;;6273947;22;20022;-84
2023/01/11 11:46:57;;;;;;;27.63;3.40;;;9.40;99.90;;;;;;6326060;22;20011;-84
2023/01/11 11:49:23;;;;;;;19.55;2.97;;;9.40;99.90;;;;;;6273091;22;20390;-84
2023/01/11 11:51:51;;;;;;;19.25;2.65;;;9.60;99.90;;;;;;6274513;22;20320;-84
2023/01/11 11:54:23;;;;;;;16.48;3.13;;;9.50;99.90;;;;;;6248641;22;20015;-84
2023/01/11 11:56:49;;;;;;;21.63;3.22;;;9.60;99.90;;;;;;6273252;22;20086;-84
2023/01/11 11:59:19;;;;;;;24.75;3.60;;;9.70;99.90;;;;;;6273873;22;20098;-83
2023/01/11 12:01:48;;;;;;;23.38;3.28;;;9.70;99.90;;;;;;6274323;22;20026;-83
2023/01/11 12:04:17;;;;;;;26.58;4.00;;;9.70;99.90;;;;;;6273005;22;20439;-83
2023/01/11 12:06:46;;;;;;;20.55;3.85;;;9.80;99.90;;;;;;6274173;22;20020;-83
2023/01/11 12:09:26;;;;;;;18.20;3.00;;;10.00;99.90;;;;;;6274150;22;20331;-83
2023/01/11 12:11:53;;;;;;;25.73;3.45;;;9.90;99.90;;;;;;6271797;22;20054;-83
2023/01/11 12:14:29;;;;;;;27.25;4.45;;;9.90;99.90;;;;;;6273696;22;20064;-83
2023/01/11 12:16:57;;;;;;;17.05;3.28;;;9.90;99.90;;;;;;6273660;22;20023;-83
2023/01/11 12:19:33;;;;;;;27.65;3.20;;;9.90;99.90;;;;;;6247655;22;20029;-83
2023/01/11 12:22:10;;;;;;;14.85;2.97;;;9.80;99.90;;;;;;6247746;22;20023;-83
2023/01/11 12:24:35;;;;;;;20.10;3.35;;;9.80;99.90;;;;;;6300621;22;20019;-83
2023/01/11 12:27:08;;;;;;;18.10;2.60;;;9.80;99.90;;;;;;6298242;22;20202;-83
2023/01/11 12:29:56;;;;;;;27.38;4.10;;;9.70;99.90;;;;;;6273411;22;20094;-83
2023/01/11 12:32:38;;;;;;;26.35;3.80;;;9.70;99.90;;;;;;6273454;22;20015;-83
2023/01/11 12:35:05;;;;;;;23.17;3.20;;;9.70;99.90;;;;;;6247677;22;20022;-83
2023/01/11 12:37:47;;;;;;;22.90;3.45;;;9.70;99.90;;;;;;6273879;22;20019;-83
2023/01/11 12:40:24;;;;;;;20.75;3.80;;;9.70;99.90;;;;;;6300376;22;20011;-83
2023/01/11 12:43:14;;;;;;;23.05;3.25;;;9.70;99.90;;;;;;6272856;22;20057;-83
2023/01/11 12:45:58;;;;;;;27.42;3.90;;;9.70;99.90;;;;;;6299996;22;20455;-83
2023/01/11 12:48:55;;;;;;;25.98;3.53;;;9.70;99.90;;;;;;6298674;22;20431;-82
2023/01/11 12:51:36;;;;;;;17.88;3.47;;;9.60;99.90;;;;;;6272493;22;20015;-82
2023/01/11 12:54:14;;;;;;;23.42;3.90;;;9.60;99.90;;;;;;6271907;22;20034;-82
2023/01/11 12:57:02;;;;;;;18.08;2.83;;;9.30;99.90;;;;;;6273982;22;20034;-82
2023/01/11 12:59:55;;;;;;;23.75;3.95;;;9.60;99.90;;;;;;6299806;22;20539;-82
2023/01/11 13:02:58;;;;;;;26.00;3.42;;;9.60;99.90;;;;;;6273479;22;20047;-82
2023/01/11 13:05:29;;;;;;;19.35;3.17;;;9.60;99.90;;;;;;6301286;22;20451;-82
2023/01/11 13:08:15;;;;;;;21.80;3.47;;;9.60;99.90;;;;;;6272547;22;20015;-82
2023/01/11 13:10:53;;;;;;;23.65;3.85;;;9.60;99.90;;;;;;6273840;22;20068;-82
2023/01/11 13:13:26;;;;;;;26.80;3.25;;;9.60;99.90;;;;;;6273248;22;20053;-82
2023/01/11 13:16:07;;;;;;;23.70;3.85;;;9.60;99.90;;;;;;6246464;22;20098;-83
2023/01/11 13:18:43;;;;;;;30.35;5.20;;;9.60;99.90;;;;;;6273334;22;20452;-82
2023/01/11 13:21:15;;;;;;;29.55;3.45;;;9.60;99.90;;;;;;6272395;22;20440;-83
2023/01/11 13:23:53;;;;;;;26.67;4.20;;;9.60;99.90;;;;;;6274227;22;20026;-83
2023/01/11 13:26:26;;;;;;;21.33;3.72;;;9.50;99.90;;;;;;6274291;22;20347;-82
2023/01/11 13:29:05;;;;;;;27.58;3.90;;;9.50;99.90;;;;;;6298135;22;20112;-82
2023/01/11 13:31:33;;;;;;;27.10;3.65;;;9.50;99.90;;;;;;6273518;22;20351;-82
2023/01/11 13:34:05;;;;;;;28.95;3.90;;;9.40;99.90;;;;;;6247003;22;20038;-82
2023/01/11 13:36:39;;;;;;;23.65;3.88;;;9.40;99.90;;;;;;6272107;22;20026;-83
2023/01/11 13:39:33;;;;;;;25.75;4.43;;;9.40;99.90;;;;;;6272046;22;20023;-83
2023/01/11 13:42:03;;;;;;;25.08;3.72;;;9.50;99.90;;;;;;6271476;22;20442;-83
2023/01/11 13:44:35;;;;;;;28.90;4.25;;;9.50;99.90;;;;;;6272896;22;20023;-82